AirNav   Everest Fuels
 
 1489 users online  

MO07 Adventures Aloft Airport
Jonesburg, Missouri, USA

GOING TO JONESBURG?


FAA INFORMATION EFFECTIVE 03 NOVEMBER 2022

Location

FAA Identifier: MO07
Lat/Long: 38-52-21.1570N 091-18-00.5600W
38-52.352617N 091-18.009333W
38.8725436,-91.3001556
(estimated)
Elevation: 871 ft. / 265 m (estimated)
Variation: 03E (1984)
From city: 1 mile N of JONESBURG, MO
Time zone: UTC -6 (UTC -5 during Daylight Saving Time)
Zip code: 63351

Airport Operations

Airport use: Private use. Permission required prior to landing
Activation date: 06/1984
Control tower: no
ARTCC: KANSAS CITY CENTER
FSS: SAINT LOUIS FLIGHT SERVICE STATION
Attendance: IREG
Wind indicator: yes
Segmented circle: no

Nearby radio navigation aids

VOR radial/distance  VOR name  Freq  Var
FTZr300/18.7FORISTELL VORTAC110.8005E
STLr270/38.2ST LOUIS VORTAC117.4001E

Airport Services

Parking: hangars

Runway Information

Runway 18/36

Dimensions: 2075 x 50 ft. / 632 x 15 m
Surface: gravel, in fair condition
RUNWAY 18  RUNWAY 36
Traffic pattern: rightleft
Obstructions: 41 ft. trees, 925 ft. from runway, 145 ft. left of centerline, 22:1 slope to clear
+1-10' ROAD & HIGH GND L & R OF CNTRLN IN APPROACH LESS THAN 20:1.
none

Airport Ownership and Management from official FAA records

Ownership: Privately-owned
Owner: RECO PROPERTIES INC
PO BOX 1967
PLATTE CITY, MO 64079
Phone 816-464-5567
Manager: BOB LEWIS
101 E WALTON
WARRENTON, MO 63383
Phone 573-456-2615

Airport Operational Statistics

Aircraft based on the field: 4
Single engine airplanes: 2
Ultralights: 2
  • CTN: ULTRALIGHTS ON & INVOF ARPT.
    
Aircraft operations: avg 43/week *
89% local general aviation
11% transient general aviation
* for 12-month period ending 15 December 1988

Additional Remarks

HIGH GND & ROAD IN PRIMARY SFC; VIOLATIONS OF 7:1 TRSN=TREES & ROAD ON EAST SIDE; PLINE TREES & ANTENNA ON WEST SIDE.
FOR CD CTC MIZZOU APCH AT 417-868-5620/5619.

Instrument Procedures

There are no published instrument procedures at MO07.

Some nearby airports with instrument procedures:

KFYG - Washington Regional Airport (22 nm SE)
KMYJ - Mexico Memorial Airport (30 nm NW)
H19 - Bowling Green Municipal Airport (30 nm N)
KSUS - Spirit of St Louis Airport (33 nm E)
KFTT - Elton Hensley Memorial Airport (33 nm W)
 
Loc | Ops | Rwys | IFR | FBO | Links
Com | Nav | Svcs | Stats | Notes
Area around MO07 (Adventures Aloft Airport)
 
Road maps at: MapQuest Bing Google
 
Aerial photo
No photo
 
Sectional chart

 
Airport distance calculator
Flying to Adventures Aloft Airport? Find the distance to fly.

From to MO07

Sunrise and sunset
Times for 29-Nov-2022
 Local
(UTC-6)
 Zulu
(UTC)
Morning civil twilight06:3412:34
Sunrise07:0413:04
Sunset16:4322:43
Evening civil twilight17:1323:13

Current date and time
Zulu (UTC)  29-Nov-2022 18:03:03
Local (UTC-6)  29-Nov-2022 12:03:03
 
METAR
KFYG 
22nm SE 
291755Z AUTO 20019G26KT 10SM BKN031 BKN037 19/13 A2955 RMK AO2
KMYJ 
30nm NW 
291755Z AUTO 20019G30KT 10SM BKN037 BKN046 18/11 A2949 RMK AO2
KSUS 
33nm SE 
291754Z 20015G26KT 10SM BKN031 17/12 A2955 RMK AO2 PK WND 20030/1720 SLP005 T01720117 10178 20072 58026
KUUV 
39nm S 
291755Z AUTO 20013G24KT 10SM BKN024 OVC029 16/11 A2960 RMK AO2
KSET 
41nm E 
291754Z AUTO 19015G23KT 10SM -RA OVC032 17/11 A2957 RMK AO2 SLP011 P0000 60000 T01720111 10172 20061 58031
KCOU 
43nm W 
291754Z 20016G27KT 10SM BKN038 OVC047 19/11 A2950 RMK AO2 PK WND 18036/1728 SLP987 T01890106 10194 20106 58019
KJEF 
43nm W 
291753Z 19014G24KT 10SM FEW036 BKN050 19/11 A2951 RMK AO2 PK WND 18029/1709 SLP983 T01940106 10200 20122 58019 $
KSTL 
44nm E 
291751Z 18016G24KT 10SM BKN027 BKN200 16/10 A2959 RMK AO2 PK WND 17028/1721 SLP020 T01610100 10161 20083 58027 $
TAF
KSUS 
33nm SE 
291120Z 2912/3012 15010G20KT P6SM BKN250 FM291500 17016G32KT P6SM BKN250 FM292000 19015G30KT P6SM SCT025 FM300000 22013G24KT P6SM VCSH SCT025 BKN040 FM300200 29014G27KT P6SM BKN040
NOTAMs
Click for the latest NOTAMs
NOTAMs are issued by the DoD/FAA and will open in a separate window not controlled by AirNav.

 

 
 

Would you like to see your business listed on this page?

 If your business provides an interesting product or service to pilots, flight crews, aircraft, or users of the Adventures Aloft Airport, you should consider listing it here.  To start the listing process, click on the button below
 
Add a business
 

Other Pages about Adventures Aloft Airport

Update a link
 
Copyright © AirNav, LLC. All rights reserved. Privacy Policy  Contact